createdAt,value
2022-11-28T00:01:22.790Z,16.05
2022-11-28T00:03:50.508Z,11.05
2022-11-28T00:06:18.948Z,12.18
2022-11-28T00:08:48.121Z,14.32
2022-11-28T00:11:17.171Z,13.38
2022-11-28T00:13:45.351Z,10.57
2022-11-28T00:16:15.848Z,11.02
2022-11-28T00:18:43.534Z,14.40
2022-11-28T00:21:13.050Z,11.50
2022-11-28T00:23:41.096Z,12.00
2022-11-28T00:26:12.657Z,10.80
2022-11-28T00:28:40.631Z,12.23
2022-11-28T00:31:13.059Z,11.05
2022-11-28T00:33:40.736Z,11.67
2022-11-28T00:36:09.186Z,11.65
2022-11-28T00:38:36.876Z,10.77
2022-11-28T00:41:06.985Z,11.90
2022-11-28T00:43:36.128Z,17.60
2022-11-28T00:46:04.542Z,18.20
2022-11-28T00:48:33.146Z,18.63
2022-11-28T00:51:07.068Z,16.35
2022-11-28T00:53:34.672Z,14.55
2022-11-28T00:56:02.316Z,15.45
2022-11-28T00:58:29.890Z,15.40
2022-11-28T01:00:58.886Z,13.80
2022-11-28T01:03:26.679Z,10.55
2022-11-28T01:05:54.329Z,12.32
2022-11-28T01:08:21.923Z,12.15
2022-11-28T01:10:49.517Z,11.27
2022-11-28T01:13:17.196Z,11.02
2022-11-28T01:15:44.793Z,12.25
2022-11-28T01:18:13.809Z,11.27
2022-11-28T01:20:41.434Z,10.45
2022-11-28T01:23:09.095Z,10.32
2022-11-28T01:25:37.009Z,13.57
2022-11-28T01:28:04.878Z,12.27
2022-11-28T01:30:33.977Z,9.30
2022-11-28T01:33:01.639Z,10.05
2022-11-28T01:35:30.660Z,10.43
2022-11-28T01:37:58.287Z,9.27
2022-11-28T01:40:25.888Z,8.52
2022-11-28T01:42:53.615Z,10.63
2022-11-28T01:45:23.776Z,10.05
2022-11-28T01:47:54.521Z,8.60
2022-11-28T01:50:23.586Z,8.52
2022-11-28T01:52:56.905Z,9.45
2022-11-28T01:57:56.207Z,10.13
2022-11-28T02:00:24.580Z,9.13
2022-11-28T02:02:55.001Z,9.35
2022-11-28T02:05:23.829Z,11.02
2022-11-28T02:07:53.335Z,10.60
2022-11-28T02:10:26.451Z,9.93
2022-11-28T02:13:11.248Z,13.10
2022-11-28T02:15:52.404Z,10.13
2022-11-28T02:18:43.921Z,11.73
2022-11-28T02:21:24.955Z,9.73
2022-11-28T02:24:16.032Z,10.57
2022-11-28T02:27:07.321Z,9.07
2022-11-28T02:30:07.884Z,10.25
2022-11-28T02:32:58.348Z,13.68
2022-11-28T02:35:34.362Z,10.73
2022-11-28T02:38:07.566Z,9.90
2022-11-28T02:40:42.406Z,10.27
2022-11-28T02:43:17.818Z,9.13
2022-11-28T02:45:54.956Z,10.93
2022-11-28T02:48:30.545Z,8.95
2022-11-28T02:51:03.099Z,8.05
2022-11-28T02:53:34.607Z,10.33
2022-11-28T02:56:02.740Z,9.35
2022-11-28T02:58:30.450Z,10.57
2022-11-28T03:00:58.606Z,8.48
2022-11-28T03:03:42.780Z,6.75
2022-11-28T03:06:19.757Z,7.32
2022-11-28T03:09:01.641Z,10.10
2022-11-28T03:11:45.851Z,11.20
2022-11-28T03:14:23.799Z,10.18
2022-11-28T03:17:03.162Z,11.10
2022-11-28T03:19:36.749Z,9.48
2022-11-28T03:22:11.177Z,8.50
2022-11-28T03:24:45.190Z,12.20
2022-11-28T03:27:17.545Z,8.45
2022-11-28T03:29:50.026Z,6.00
2022-11-28T03:32:21.908Z,8.03
2022-11-28T03:34:58.436Z,11.23
2022-11-28T03:37:30.927Z,9.80
2022-11-28T03:40:02.111Z,12.60
2022-11-28T03:42:33.388Z,9.35
2022-11-28T03:45:07.472Z,9.00
2022-11-28T03:47:39.547Z,10.00
2022-11-28T03:50:16.100Z,11.00
2022-11-28T03:52:50.130Z,8.93
2022-11-28T03:55:22.858Z,8.35
2022-11-28T03:57:58.534Z,7.78
2022-11-28T04:00:27.118Z,11.23
2022-11-28T04:03:01.864Z,7.68
2022-11-28T04:05:37.435Z,9.40
2022-11-28T04:08:14.130Z,8.88
2022-11-28T04:10:44.761Z,9.60
2022-11-28T04:13:19.251Z,9.15
2022-11-28T04:15:51.800Z,8.68
2022-11-28T04:18:22.936Z,9.70
2022-11-28T04:20:55.418Z,8.95
2022-11-28T04:23:24.058Z,5.77
2022-11-28T04:25:55.735Z,8.25
2022-11-28T04:28:25.904Z,8.07
2022-11-28T04:30:55.897Z,7.53
2022-11-28T04:33:26.852Z,11.18
2022-11-28T04:35:57.531Z,7.13
2022-11-28T04:38:27.561Z,9.52
2022-11-28T04:41:01.344Z,13.18
2022-11-28T04:43:33.010Z,9.95
2022-11-28T04:46:06.977Z,11.55
2022-11-28T04:48:34.918Z,14.57
2022-11-28T04:51:16.824Z,9.15
2022-11-28T04:53:50.562Z,7.53
2022-11-28T04:56:22.781Z,9.85
2022-11-28T04:58:51.876Z,9.68
2022-11-28T05:01:25.168Z,10.57
2022-11-28T05:06:27.890Z,9.75
2022-11-28T05:08:55.566Z,9.23
2022-11-28T05:11:25.518Z,8.13
2022-11-28T05:13:53.299Z,8.77
2022-11-28T05:16:21.075Z,9.65
2022-11-28T05:18:48.700Z,12.15
2022-11-28T05:21:16.744Z,9.77
2022-11-28T05:23:46.187Z,7.90
2022-11-28T05:26:16.625Z,8.48
2022-11-28T05:28:44.766Z,10.40
2022-11-28T05:31:13.090Z,8.43
2022-11-28T05:33:41.096Z,9.25
2022-11-28T05:36:13.432Z,9.52
2022-11-28T05:38:41.608Z,5.60
2022-11-28T05:41:11.138Z,9.75
2022-11-28T05:43:38.748Z,9.02
2022-11-28T05:46:07.149Z,8.13
2022-11-28T05:48:35.199Z,9.65
2022-11-28T05:51:05.286Z,9.90
2022-11-28T05:53:32.938Z,8.60
2022-11-28T05:56:00.751Z,9.82
2022-11-28T05:58:29.690Z,8.93
2022-11-28T06:00:57.333Z,9.60
2022-11-28T06:03:25.038Z,10.13
2022-11-28T06:05:52.631Z,10.45
2022-11-28T06:08:20.341Z,7.72
2022-11-28T06:10:57.241Z,6.88
2022-11-28T06:13:25.162Z,9.10
2022-11-28T06:15:54.210Z,10.60
2022-11-28T06:18:21.833Z,9.05
2022-11-28T06:20:49.590Z,8.90
2022-11-28T06:23:17.363Z,9.52
2022-11-28T06:25:44.986Z,9.18
2022-11-28T06:28:12.673Z,11.27
2022-11-28T06:30:40.437Z,12.15
2022-11-28T06:33:09.426Z,11.02
2022-11-28T06:35:37.085Z,10.75
2022-11-28T06:38:04.761Z,11.52
2022-11-28T06:40:32.470Z,10.00
2022-11-28T06:43:00.162Z,10.05
2022-11-28T06:45:27.794Z,11.80
2022-11-28T06:47:55.373Z,10.80
2022-11-28T06:50:24.328Z,11.02
2022-11-28T06:52:52.029Z,11.43
2022-11-28T06:55:19.656Z,10.15
2022-11-28T06:57:47.365Z,11.48
2022-11-28T07:00:15.881Z,11.90
2022-11-28T07:02:43.523Z,13.90
2022-11-28T07:05:11.165Z,11.90
2022-11-28T07:07:53.340Z,11.85
2022-11-28T07:10:22.343Z,10.13
2022-11-28T07:12:54.908Z,11.07
2022-11-28T07:15:22.823Z,8.63
2022-11-28T07:17:50.724Z,9.45
2022-11-28T07:20:18.587Z,10.55
2022-11-28T07:22:48.838Z,11.25
2022-11-28T07:25:16.652Z,11.80
2022-11-28T07:27:44.448Z,8.40
2022-11-28T07:30:12.465Z,8.63
2022-11-28T07:32:41.358Z,8.27
2022-11-28T07:35:09.478Z,10.55
2022-11-28T07:37:37.386Z,10.55
2022-11-28T07:40:07.885Z,9.20
2022-11-28T07:42:35.474Z,10.48
2022-11-28T07:45:04.926Z,10.40
2022-11-28T07:47:32.697Z,10.55
2022-11-28T07:50:00.289Z,11.93
2022-11-28T07:52:27.872Z,30.23
2022-11-28T07:54:55.595Z,50.42
2022-11-28T07:57:24.614Z,31.92
2022-11-28T07:59:52.344Z,14.40
2022-11-28T08:02:20.108Z,28.30
2022-11-28T08:04:51.548Z,22.55
2022-11-28T08:07:21.749Z,13.63
2022-11-28T08:09:49.398Z,14.00
2022-11-28T08:12:17.163Z,9.02
2022-11-28T08:14:46.178Z,13.35
2022-11-28T08:17:13.827Z,15.02
2022-11-28T08:19:41.516Z,10.85
2022-11-28T08:22:09.190Z,7.22
2022-11-28T08:24:37.642Z,10.75
2022-11-28T08:27:05.594Z,9.90
2022-11-28T08:29:33.237Z,10.95
2022-11-28T08:32:02.187Z,11.63
2022-11-28T08:34:29.783Z,12.15
2022-11-28T08:36:57.429Z,10.20
2022-11-28T08:39:25.579Z,9.88
2022-11-28T08:41:54.112Z,7.57
2022-11-28T08:44:21.770Z,9.65
2022-11-28T08:46:49.459Z,8.65
2022-11-28T08:49:18.483Z,10.68
2022-11-28T08:51:46.265Z,10.13
2022-11-28T08:54:13.962Z,9.40
2022-11-28T08:56:41.584Z,8.68
2022-11-28T08:59:09.214Z,9.45
2022-11-28T09:01:36.896Z,15.20
2022-11-28T09:04:05.370Z,15.30
2022-11-28T09:06:34.337Z,11.25
2022-11-28T09:09:02.823Z,12.35
2022-11-28T09:11:30.447Z,11.90
2022-11-28T09:13:58.056Z,12.27
2022-11-28T09:16:25.734Z,12.10
2022-11-28T09:18:53.712Z,12.82
2022-11-28T09:21:21.615Z,11.27
2022-11-28T09:23:50.604Z,11.50
2022-11-28T09:26:20.433Z,10.38
2022-11-28T09:28:48.466Z,9.30
2022-11-28T09:31:17.362Z,10.02
2022-11-28T09:33:45.649Z,12.05
2022-11-28T09:36:15.401Z,11.10
2022-11-28T09:38:43.322Z,11.20
2022-11-28T09:41:30.291Z,13.18
2022-11-28T09:44:02.755Z,17.85
2022-11-28T09:46:34.941Z,10.13
2022-11-28T09:49:10.369Z,10.70
2022-11-28T09:51:48.410Z,12.77
2022-11-28T09:54:21.262Z,11.55
2022-11-28T09:56:51.338Z,9.18
2022-11-28T09:59:24.249Z,8.10
2022-11-28T10:02:01.544Z,11.82
2022-11-28T10:04:38.368Z,9.50
2022-11-28T10:07:12.563Z,8.85
2022-11-28T10:09:52.250Z,9.55
2022-11-28T10:12:33.187Z,9.60
2022-11-28T10:15:21.074Z,8.48
2022-11-28T10:18:01.359Z,30.65
2022-11-28T10:20:33.702Z,13.75
2022-11-28T10:23:05.750Z,9.15
2022-11-28T10:25:37.822Z,7.70
2022-11-28T10:28:11.025Z,7.43
2022-11-28T10:30:43.895Z,7.20
2022-11-28T10:33:20.116Z,6.63
2022-11-28T10:35:53.009Z,8.02
2022-11-28T10:38:25.468Z,7.82
2022-11-28T10:40:59.420Z,6.88
2022-11-28T10:43:44.600Z,7.45
2022-11-28T10:46:41.840Z,7.03
2022-11-28T10:49:24.885Z,8.77
2022-11-28T10:52:01.491Z,6.35
2022-11-28T10:54:47.576Z,6.78
2022-11-28T10:57:20.196Z,11.30
2022-11-28T11:00:02.671Z,8.50
2022-11-28T11:02:36.993Z,18.63
2022-11-28T11:05:05.602Z,14.85
2022-11-28T11:07:34.917Z,31.23
2022-11-28T11:10:15.390Z,23.33
2022-11-28T11:12:44.213Z,20.65
2022-11-28T11:15:23.033Z,14.23
2022-11-28T11:17:51.818Z,10.48
2022-11-28T11:20:36.340Z,8.27
2022-11-28T11:23:14.066Z,7.95
2022-11-28T11:25:49.585Z,10.40
2022-11-28T11:28:42.299Z,10.55
2022-11-28T11:31:23.341Z,9.45
2022-11-28T11:33:54.241Z,14.50
2022-11-28T11:36:28.148Z,9.45
2022-11-28T11:39:17.888Z,8.75
2022-11-28T11:41:47.049Z,9.00
2022-11-28T11:44:41.933Z,9.38
2022-11-28T11:47:11.569Z,7.93
2022-11-28T11:49:42.685Z,10.27
2022-11-28T11:52:18.983Z,8.32
2022-11-28T11:55:03.157Z,10.13
2022-11-28T11:57:35.065Z,10.32
2022-11-28T12:00:06.889Z,8.38
2022-11-28T12:02:44.824Z,10.05
2022-11-28T12:05:16.193Z,8.98
2022-11-28T12:07:57.467Z,8.93
2022-11-28T12:10:28.742Z,11.65
2022-11-28T12:12:56.396Z,13.95
2022-11-28T12:15:33.745Z,11.05
2022-11-28T12:18:22.454Z,13.05
2022-11-28T12:21:02.185Z,14.15
2022-11-28T12:23:45.861Z,12.75
2022-11-28T12:29:00.430Z,10.48
2022-11-28T12:34:14.398Z,7.38
2022-11-28T12:36:49.989Z,8.43
2022-11-28T12:39:22.372Z,11.32
2022-11-28T12:42:16.422Z,9.23
2022-11-28T12:45:05.575Z,7.95
2022-11-28T12:47:43.964Z,8.70
2022-11-28T12:50:23.952Z,8.38
2022-11-28T12:53:00.741Z,11.68
2022-11-28T12:55:35.746Z,10.65
2022-11-28T12:58:09.780Z,9.30
2022-11-28T13:00:51.029Z,12.35
2022-11-28T13:03:34.082Z,11.48
2022-11-28T13:06:15.348Z,9.00
2022-11-28T13:09:03.965Z,9.52
2022-11-28T13:11:44.234Z,14.77
2022-11-28T13:14:21.052Z,12.63
2022-11-28T13:16:51.427Z,10.63
2022-11-28T13:19:32.009Z,15.60
2022-11-28T13:22:10.277Z,10.75
2022-11-28T13:24:44.097Z,11.70
2022-11-28T13:27:21.973Z,12.30
2022-11-28T13:30:00.813Z,15.70
2022-11-28T13:32:41.673Z,14.60
2022-11-28T13:35:14.373Z,20.30
2022-11-28T13:40:44.309Z,19.15
2022-11-28T13:43:18.767Z,21.90
2022-11-28T13:45:47.711Z,17.77
2022-11-28T13:51:41.196Z,16.60
2022-11-28T13:54:43.111Z,16.77
2022-11-28T13:57:31.647Z,14.88
2022-11-28T14:00:08.134Z,14.20
2022-11-28T14:02:49.097Z,13.25
2022-11-28T14:05:29.679Z,16.60
2022-11-28T14:07:58.805Z,16.08
2022-11-28T14:10:40.901Z,17.60
2022-11-28T14:13:30.883Z,18.13
2022-11-28T14:16:11.414Z,19.45
2022-11-28T14:19:03.375Z,15.25
2022-11-28T14:21:45.127Z,15.93
2022-11-28T14:24:22.843Z,19.55
2022-11-28T14:26:58.856Z,17.25
2022-11-28T14:29:31.834Z,13.80
2022-11-28T14:32:28.562Z,11.90
2022-11-28T14:34:49.879Z,14.55
2022-11-28T14:37:57.401Z,32.25
2022-11-28T14:41:05.468Z,29.42
2022-11-28T14:43:37.847Z,17.85
2022-11-28T14:46:25.065Z,11.75
2022-11-28T14:49:20.569Z,12.80
2022-11-28T14:52:37.193Z,11.48
2022-11-28T14:54:57.176Z,10.63
2022-11-28T14:57:27.276Z,12.90
2022-11-28T14:59:59.533Z,11.13
2022-11-28T15:02:48.875Z,11.05
2022-11-28T15:05:31.353Z,13.55
2022-11-28T15:08:17.456Z,11.10
2022-11-28T15:10:52.224Z,13.07
2022-11-28T15:13:34.333Z,10.38
2022-11-28T15:16:10.991Z,10.98
2022-11-28T15:18:41.760Z,8.93
2022-11-28T15:21:16.162Z,8.88
2022-11-28T15:23:46.583Z,10.50
2022-11-28T15:26:20.731Z,9.73
2022-11-28T15:28:48.489Z,8.48
2022-11-28T15:31:23.954Z,10.45
2022-11-28T15:33:52.008Z,8.45
2022-11-28T15:36:27.083Z,7.95
2022-11-28T15:38:56.535Z,8.07
2022-11-28T15:41:26.218Z,8.20
2022-11-28T15:43:55.970Z,6.93
2022-11-28T15:46:35.240Z,6.03
2022-11-28T15:49:05.062Z,7.65
2022-11-28T15:51:35.466Z,7.88
2022-11-28T15:54:04.734Z,9.27
2022-11-28T15:56:34.683Z,6.93
2022-11-28T15:59:02.497Z,7.72
2022-11-28T16:01:33.069Z,6.82
2022-11-28T16:04:06.334Z,10.57
2022-11-28T16:06:37.235Z,10.88
2022-11-28T16:09:07.569Z,7.60
2022-11-28T16:11:36.680Z,8.52
2022-11-28T16:14:09.640Z,9.93
2022-11-28T16:16:40.635Z,8.30
2022-11-28T16:19:18.900Z,8.48
2022-11-28T16:21:51.755Z,9.60
2022-11-28T16:24:26.884Z,7.85
2022-11-28T16:26:58.455Z,10.13
2022-11-28T16:29:34.410Z,18.05
2022-11-28T16:32:21.587Z,14.13
2022-11-28T16:34:51.442Z,8.07
2022-11-28T16:37:22.086Z,7.90
2022-11-28T16:40:00.863Z,8.52
2022-11-28T16:42:28.957Z,6.88
2022-11-28T16:44:56.634Z,9.05
2022-11-28T16:47:27.791Z,10.23
2022-11-28T16:50:17.144Z,8.48
2022-11-28T16:52:54.880Z,6.47
2022-11-28T16:55:44.187Z,18.38
2022-11-28T16:58:15.314Z,15.80
2022-11-28T17:00:45.505Z,13.30
2022-11-28T17:03:49.741Z,18.33
2022-11-28T17:08:56.256Z,17.15
2022-11-28T17:11:27.691Z,11.27
2022-11-28T17:13:57.626Z,9.35
2022-11-28T17:16:27.291Z,7.32
2022-11-28T17:18:56.346Z,7.70
2022-11-28T17:21:32.090Z,8.00
2022-11-28T17:24:00.097Z,6.57
2022-11-28T17:26:27.779Z,12.75
2022-11-28T17:28:55.709Z,9.32
2022-11-28T17:31:24.558Z,7.55
2022-11-28T17:33:52.183Z,10.52
2022-11-28T17:36:21.153Z,14.70
2022-11-28T17:38:48.816Z,23.45
2022-11-28T17:41:16.497Z,15.15
2022-11-28T17:43:44.183Z,12.52
2022-11-28T17:46:11.990Z,10.30
2022-11-28T17:48:39.634Z,9.23
2022-11-28T17:51:07.396Z,8.05
2022-11-28T17:53:37.902Z,8.85
2022-11-28T17:56:06.151Z,7.07
2022-11-28T17:58:34.034Z,11.10
2022-11-28T18:01:01.937Z,12.52
2022-11-28T18:03:29.871Z,14.95
2022-11-28T18:05:57.502Z,18.02
2022-11-28T18:08:25.429Z,14.40
2022-11-28T18:11:04.611Z,13.05
2022-11-28T18:13:33.355Z,13.65
2022-11-28T18:16:01.402Z,14.85
2022-11-28T18:18:29.723Z,12.00
2022-11-28T18:20:57.371Z,9.73
2022-11-28T18:23:25.323Z,11.80
2022-11-28T18:25:53.188Z,10.23
2022-11-28T18:28:22.864Z,12.45
2022-11-28T18:30:50.931Z,14.98
2022-11-28T18:33:18.610Z,22.70
2022-11-28T18:35:46.254Z,16.33
2022-11-28T18:38:13.971Z,23.35
2022-11-28T18:40:41.831Z,14.77
2022-11-28T18:43:09.452Z,13.43
2022-11-28T18:45:38.540Z,13.63
2022-11-28T18:48:06.370Z,15.82
2022-11-28T18:50:35.686Z,16.20
2022-11-28T18:53:03.393Z,15.20
2022-11-28T18:55:31.516Z,16.88
2022-11-28T18:57:59.763Z,13.48
2022-11-28T19:00:27.486Z,15.13
2022-11-28T19:02:56.944Z,16.88
2022-11-28T19:05:24.543Z,13.57
2022-11-28T19:07:52.509Z,26.70
2022-11-28T19:10:21.035Z,18.98
2022-11-28T19:12:48.630Z,17.92
2022-11-28T19:15:16.454Z,17.60
2022-11-28T19:17:44.140Z,18.65
2022-11-28T19:20:13.740Z,13.38
2022-11-28T19:22:41.421Z,13.80
2022-11-28T19:25:09.949Z,15.25
2022-11-28T19:27:37.921Z,14.77
2022-11-28T19:30:06.842Z,15.07
2022-11-28T19:32:36.190Z,16.23
2022-11-28T19:35:04.418Z,16.02
2022-11-28T19:37:33.431Z,15.68
2022-11-28T19:40:03.028Z,14.15
2022-11-28T19:42:31.356Z,12.85
2022-11-28T19:44:58.984Z,12.45
2022-11-28T19:47:26.754Z,36.13
2022-11-28T19:49:54.394Z,19.10
2022-11-28T19:52:22.046Z,16.27
2022-11-28T19:54:51.254Z,14.32
2022-11-28T19:57:20.694Z,16.08
2022-11-28T19:59:48.760Z,14.73
2022-11-28T20:02:17.578Z,14.38
2022-11-28T20:04:45.285Z,14.25
2022-11-28T20:07:13.057Z,14.20
2022-11-28T20:09:41.576Z,30.08
2022-11-28T20:12:11.090Z,17.20
2022-11-28T20:14:38.736Z,14.85
2022-11-28T20:17:07.111Z,12.77
2022-11-28T20:19:34.759Z,11.70
2022-11-28T20:22:02.395Z,14.15
2022-11-28T20:24:30.435Z,12.32
2022-11-28T20:26:58.182Z,13.60
2022-11-28T20:29:27.867Z,14.05
2022-11-28T20:31:57.006Z,16.98
2022-11-28T20:34:25.495Z,17.10
2022-11-28T20:36:54.010Z,19.67
2022-11-28T20:39:21.850Z,17.02
2022-11-28T20:41:49.470Z,19.63
2022-11-28T20:44:17.661Z,19.55
2022-11-28T20:46:49.322Z,22.10
2022-11-28T20:49:17.689Z,20.25
2022-11-28T20:51:45.679Z,19.20
2022-11-28T20:54:14.288Z,20.15
2022-11-28T20:57:12.713Z,21.88
2022-11-28T20:59:30.909Z,21.25
2022-11-28T21:01:59.930Z,21.83
2022-11-28T21:04:27.611Z,19.45
2022-11-28T21:06:55.265Z,20.83
2022-11-28T21:09:22.932Z,25.17
2022-11-28T21:11:57.336Z,23.98
2022-11-28T21:14:26.041Z,25.17
2022-11-28T21:16:53.727Z,23.48
2022-11-28T21:19:22.766Z,25.17
2022-11-28T21:21:50.445Z,19.83
2022-11-28T21:24:18.090Z,21.77
2022-11-28T21:26:51.312Z,22.17
2022-11-28T21:29:21.487Z,22.27
2022-11-28T21:31:49.200Z,18.67
2022-11-28T21:34:17.543Z,20.98
2022-11-28T21:36:46.671Z,17.17
2022-11-28T21:39:15.974Z,20.20
2022-11-28T21:41:43.719Z,19.00
2022-11-28T21:44:12.527Z,18.98
2022-11-28T21:46:40.247Z,16.92
2022-11-28T21:49:07.985Z,19.15
2022-11-28T21:51:39.883Z,32.65
2022-11-28T21:54:10.702Z,21.83
2022-11-28T21:56:38.462Z,17.50
2022-11-28T21:59:06.672Z,15.80
2022-11-28T22:01:34.382Z,15.07
2022-11-28T22:04:03.006Z,15.43
2022-11-28T22:06:31.701Z,20.55
2022-11-28T22:09:04.412Z,15.32
2022-11-28T22:11:37.936Z,14.60
2022-11-28T22:14:05.758Z,16.27
2022-11-28T22:16:33.965Z,15.43
2022-11-28T22:19:02.152Z,17.50
2022-11-28T22:24:17.951Z,16.33
2022-11-28T22:26:46.980Z,18.95
2022-11-28T22:29:14.725Z,21.35
2022-11-28T22:31:43.342Z,23.25
2022-11-28T22:34:11.500Z,17.67
2022-11-28T22:36:39.835Z,19.70
2022-11-28T22:39:11.406Z,23.23
2022-11-28T22:41:39.191Z,19.98
2022-11-28T22:44:08.168Z,19.92
2022-11-28T22:46:35.842Z,22.08
2022-11-28T22:49:04.114Z,21.27
2022-11-28T22:51:32.402Z,18.38
2022-11-28T22:54:02.390Z,17.13
2022-11-28T22:56:32.175Z,16.55
2022-11-28T22:59:00.221Z,15.88
2022-11-28T23:01:32.217Z,16.00
2022-11-28T23:04:01.348Z,14.77
2022-11-28T23:06:31.732Z,15.27
2022-11-28T23:09:01.418Z,14.18
2022-11-28T23:11:32.579Z,13.02
2022-11-28T23:14:00.899Z,11.13
2022-11-28T23:16:31.819Z,11.18
2022-11-28T23:19:02.253Z,9.82
2022-11-28T23:21:31.473Z,9.43
2022-11-28T23:23:59.666Z,10.38
2022-11-28T23:26:30.618Z,10.13
2022-11-28T23:29:00.041Z,9.57
2022-11-28T23:31:32.455Z,9.70
2022-11-28T23:34:02.163Z,8.93
2022-11-28T23:36:35.730Z,7.88
2022-11-28T23:39:07.979Z,7.55
2022-11-28T23:41:35.617Z,8.77
2022-11-28T23:44:03.191Z,8.05
2022-11-28T23:46:32.110Z,7.57
2022-11-28T23:49:00.005Z,5.45
2022-11-28T23:51:27.676Z,6.00
2022-11-28T23:53:55.532Z,4.47
2022-11-28T23:56:24.338Z,4.13
2022-11-28T23:58:52.987Z,4.25
